sensor_id;sensor_type;location;lat;lon;timestamp;temperature;humidity
16136;DHT22;8173;48.354;9.248;2023-02-19T00:04:26;7.40;99.90
16136;DHT22;8173;48.354;9.248;2023-02-19T00:06:52;7.30;99.90
16136;DHT22;8173;48.354;9.248;2023-02-19T00:09:19;7.40;99.90
16136;DHT22;8173;48.354;9.248;2023-02-19T00:11:47;9.50;99.90
16136;DHT22;8173;48.354;9.248;2023-02-19T00:14:16;6.90;99.90
16136;DHT22;8173;48.354;9.248;2023-02-19T00:19:17;7.40;99.90
16136;DHT22;8173;48.354;9.248;2023-02-19T00:21:45;7.40;99.90
16136;DHT22;8173;48.354;9.248;2023-02-19T00:24:13;7.40;99.90
16136;DHT22;8173;48.354;9.248;2023-02-19T00:26:41;7.50;99.90
16136;DHT22;8173;48.354;9.248;2023-02-19T00:29:13;7.40;99.90
16136;DHT22;8173;48.354;9.248;2023-02-19T00:34:09;7.30;99.90
16136;DHT22;8173;48.354;9.248;2023-02-19T00:36:40;7.30;99.90
16136;DHT22;8173;48.354;9.248;2023-02-19T00:39:09;7.20;99.90
16136;DHT22;8173;48.354;9.248;2023-02-19T00:41:38;7.20;99.90
16136;DHT22;8173;48.354;9.248;2023-02-19T00:44:06;7.10;99.90
16136;DHT22;8173;48.354;9.248;2023-02-19T00:46:36;7.10;99.90
16136;DHT22;8173;48.354;9.248;2023-02-19T00:51:33;7.00;99.90
16136;DHT22;8173;48.354;9.248;2023-02-19T00:54:05;7.00;99.90
16136;DHT22;8173;48.354;9.248;2023-02-19T00:56:32;7.80;99.90
16136;DHT22;8173;48.354;9.248;2023-02-19T01:01:42;7.10;99.90
16136;DHT22;8173;48.354;9.248;2023-02-19T01:04:14;7.20;99.90
16136;DHT22;8173;48.354;9.248;2023-02-19T01:11:52;7.30;99.90
16136;DHT22;8173;48.354;9.248;2023-02-19T01:14:20;7.40;99.90
16136;DHT22;8173;48.354;9.248;2023-02-19T01:19:14;7.40;99.90
16136;DHT22;8173;48.354;9.248;2023-02-19T01:21:41;7.40;99.90
16136;DHT22;8173;48.354;9.248;2023-02-19T01:24:08;7.40;99.90
16136;DHT22;8173;48.354;9.248;2023-02-19T01:26:52;7.50;99.90
16136;DHT22;8173;48.354;9.248;2023-02-19T01:29:20;7.50;99.90
16136;DHT22;8173;48.354;9.248;2023-02-19T01:32:01;7.50;99.90
16136;DHT22;8173;48.354;9.248;2023-02-19T01:34:41;7.50;99.90
16136;DHT22;8173;48.354;9.248;2023-02-19T01:42:11;7.50;99.90
16136;DHT22;8173;48.354;9.248;2023-02-19T01:47:38;7.40;99.90
16136;DHT22;8173;48.354;9.248;2023-02-19T01:52:35;7.40;99.90
16136;DHT22;8173;48.354;9.248;2023-02-19T01:55:05;7.50;99.90
16136;DHT22;8173;48.354;9.248;2023-02-19T01:57:52;7.50;99.90
16136;DHT22;8173;48.354;9.248;2023-02-19T02:00:24;7.50;99.90
16136;DHT22;8173;48.354;9.248;2023-02-19T02:02:51;7.60;99.90
16136;DHT22;8173;48.354;9.248;2023-02-19T02:05:30;7.60;99.90
16136;DHT22;8173;48.354;9.248;2023-02-19T02:08:01;7.70;99.90
16136;DHT22;8173;48.354;9.248;2023-02-19T02:10:46;7.60;99.90
16136;DHT22;8173;48.354;9.248;2023-02-19T02:15:47;7.60;99.90
16136;DHT22;8173;48.354;9.248;2023-02-19T02:18:25;7.60;99.90
16136;DHT22;8173;48.354;9.248;2023-02-19T02:21:20;7.60;99.90
16136;DHT22;8173;48.354;9.248;2023-02-19T02:24:01;7.60;99.90
16136;DHT22;8173;48.354;9.248;2023-02-19T02:26:44;7.60;99.90
16136;DHT22;8173;48.354;9.248;2023-02-19T02:29:28;7.60;99.90
16136;DHT22;8173;48.354;9.248;2023-02-19T02:32:18;7.60;99.90
16136;DHT22;8173;48.354;9.248;2023-02-19T02:34:52;7.60;99.90
16136;DHT22;8173;48.354;9.248;2023-02-19T02:39:46;7.70;99.90
16136;DHT22;8173;48.354;9.248;2023-02-19T02:42:14;7.60;99.90
16136;DHT22;8173;48.354;9.248;2023-02-19T02:45:28;7.70;99.90
16136;DHT22;8173;48.354;9.248;2023-02-19T02:48:43;7.70;99.90
16136;DHT22;8173;48.354;9.248;2023-02-19T02:51:21;7.70;99.90
16136;DHT22;8173;48.354;9.248;2023-02-19T02:53:53;7.70;99.90
16136;DHT22;8173;48.354;9.248;2023-02-19T02:56:39;7.60;99.90
16136;DHT22;8173;48.354;9.248;2023-02-19T02:59:08;7.60;99.90
16136;DHT22;8173;48.354;9.248;2023-02-19T03:01:40;7.60;99.90
16136;DHT22;8173;48.354;9.248;2023-02-19T03:07:16;7.50;99.90
16136;DHT22;8173;48.354;9.248;2023-02-19T03:09:44;7.50;99.90
16136;DHT22;8173;48.354;9.248;2023-02-19T03:12:28;7.50;99.90
16136;DHT22;8173;48.354;9.248;2023-02-19T03:15:18;7.50;99.90
16136;DHT22;8173;48.354;9.248;2023-02-19T03:18:08;7.40;99.90
16136;DHT22;8173;48.354;9.248;2023-02-19T03:20:57;7.30;99.90
16136;DHT22;8173;48.354;9.248;2023-02-19T03:23:28;7.30;99.90
16136;DHT22;8173;48.354;9.248;2023-02-19T03:26:11;7.30;99.90
16136;DHT22;8173;48.354;9.248;2023-02-19T03:28:52;7.10;99.90
16136;DHT22;8173;48.354;9.248;2023-02-19T03:35:15;7.00;99.90
16136;DHT22;8173;48.354;9.248;2023-02-19T03:38:09;6.80;99.90
16136;DHT22;8173;48.354;9.248;2023-02-19T03:40:51;6.80;99.90
16136;DHT22;8173;48.354;9.248;2023-02-19T03:43:43;6.80;99.90
16136;DHT22;8173;48.354;9.248;2023-02-19T03:46:19;6.80;99.90
16136;DHT22;8173;48.354;9.248;2023-02-19T03:48:50;6.80;99.90
16136;DHT22;8173;48.354;9.248;2023-02-19T03:51:29;6.80;99.90
16136;DHT22;8173;48.354;9.248;2023-02-19T03:57:16;6.80;99.90
16136;DHT22;8173;48.354;9.248;2023-02-19T03:59:52;6.80;99.90
16136;DHT22;8173;48.354;9.248;2023-02-19T04:02:31;6.90;99.90
16136;DHT22;8173;48.354;9.248;2023-02-19T04:05:25;6.90;99.90
16136;DHT22;8173;48.354;9.248;2023-02-19T04:08:19;6.90;99.90
16136;DHT22;8173;48.354;9.248;2023-02-19T04:11:02;7.00;99.90
16136;DHT22;8173;48.354;9.248;2023-02-19T04:16:29;7.00;99.90
16136;DHT22;8173;48.354;9.248;2023-02-19T04:19:15;7.00;99.90
16136;DHT22;8173;48.354;9.248;2023-02-19T04:21:50;7.00;99.90
16136;DHT22;8173;48.354;9.248;2023-02-19T04:24:39;7.00;99.90
16136;DHT22;8173;48.354;9.248;2023-02-19T04:27:21;6.90;99.90
16136;DHT22;8173;48.354;9.248;2023-02-19T04:30:03;6.90;99.90
16136;DHT22;8173;48.354;9.248;2023-02-19T04:32:52;6.80;99.90
16136;DHT22;8173;48.354;9.248;2023-02-19T04:37:47;6.80;99.90
16136;DHT22;8173;48.354;9.248;2023-02-19T04:40:14;6.70;99.90
16136;DHT22;8173;48.354;9.248;2023-02-19T04:42:43;6.70;99.90
16136;DHT22;8173;48.354;9.248;2023-02-19T04:47:39;6.70;99.90
16136;DHT22;8173;48.354;9.248;2023-02-19T04:50:09;6.80;99.90
16136;DHT22;8173;48.354;9.248;2023-02-19T04:52:38;6.80;99.90
16136;DHT22;8173;48.354;9.248;2023-02-19T04:55:39;6.80;99.90
16136;DHT22;8173;48.354;9.248;2023-02-19T04:58:19;6.80;99.90
16136;DHT22;8173;48.354;9.248;2023-02-19T05:01:07;6.80;99.90
16136;DHT22;8173;48.354;9.248;2023-02-19T05:03:35;6.80;99.90
16136;DHT22;8173;48.354;9.248;2023-02-19T05:06:08;6.70;99.90
16136;DHT22;8173;48.354;9.248;2023-02-19T05:08:51;6.60;99.90
16136;DHT22;8173;48.354;9.248;2023-02-19T05:11:33;6.60;99.90
16136;DHT22;8173;48.354;9.248;2023-02-19T05:14:16;6.50;99.90
16136;DHT22;8173;48.354;9.248;2023-02-19T05:17:24;6.60;99.90
16136;DHT22;8173;48.354;9.248;2023-02-19T05:23:01;6.50;99.90
16136;DHT22;8173;48.354;9.248;2023-02-19T05:25:31;6.40;99.90
16136;DHT22;8173;48.354;9.248;2023-02-19T05:28:12;6.50;99.90
16136;DHT22;8173;48.354;9.248;2023-02-19T05:30:47;8.10;99.90
16136;DHT22;8173;48.354;9.248;2023-02-19T05:33:37;6.30;99.90
16136;DHT22;8173;48.354;9.248;2023-02-19T05:36:08;6.40;99.90
16136;DHT22;8173;48.354;9.248;2023-02-19T05:41:59;6.20;99.90
16136;DHT22;8173;48.354;9.248;2023-02-19T05:44:26;6.30;99.90
16136;DHT22;8173;48.354;9.248;2023-02-19T05:47:20;6.30;99.90
16136;DHT22;8173;48.354;9.248;2023-02-19T05:49:47;6.30;99.90
16136;DHT22;8173;48.354;9.248;2023-02-19T05:52:15;6.20;99.90
16136;DHT22;8173;48.354;9.248;2023-02-19T05:55:09;6.20;99.90
16136;DHT22;8173;48.354;9.248;2023-02-19T05:57:44;6.20;99.90
16136;DHT22;8173;48.354;9.248;2023-02-19T06:00:29;6.20;99.90
16136;DHT22;8173;48.354;9.248;2023-02-19T06:05:58;6.20;99.90
16136;DHT22;8173;48.354;9.248;2023-02-19T06:09:35;6.20;99.90
16136;DHT22;8173;48.354;9.248;2023-02-19T06:12:04;6.30;99.90
16136;DHT22;8173;48.354;9.248;2023-02-19T06:22:12;6.20;99.90
16136;DHT22;8173;48.354;9.248;2023-02-19T06:25:03;6.20;99.90
16136;DHT22;8173;48.354;9.248;2023-02-19T06:27:48;6.20;99.90
16136;DHT22;8173;48.354;9.248;2023-02-19T06:30:33;6.20;99.90
16136;DHT22;8173;48.354;9.248;2023-02-19T06:33:05;6.20;99.90
16136;DHT22;8173;48.354;9.248;2023-02-19T06:35:56;6.20;99.90
16136;DHT22;8173;48.354;9.248;2023-02-19T06:42:20;6.20;99.90
16136;DHT22;8173;48.354;9.248;2023-02-19T06:45:14;6.20;99.90
16136;DHT22;8173;48.354;9.248;2023-02-19T06:47:42;6.20;99.90
16136;DHT22;8173;48.354;9.248;2023-02-19T06:50:25;6.20;99.90
16136;DHT22;8173;48.354;9.248;2023-02-19T06:53:31;6.20;99.90
16136;DHT22;8173;48.354;9.248;2023-02-19T06:56:23;6.20;99.90
16136;DHT22;8173;48.354;9.248;2023-02-19T06:58:57;6.20;99.90
16136;DHT22;8173;48.354;9.248;2023-02-19T07:01:51;6.20;99.90
16136;DHT22;8173;48.354;9.248;2023-02-19T07:09:16;6.20;99.90
16136;DHT22;8173;48.354;9.248;2023-02-19T07:17:08;6.00;99.90
16136;DHT22;8173;48.354;9.248;2023-02-19T07:49:04;6.10;99.90
16136;DHT22;8173;48.354;9.248;2023-02-19T07:54:50;6.20;99.90
16136;DHT22;8173;48.354;9.248;2023-02-19T08:00:09;6.30;99.90
16136;DHT22;8173;48.354;9.248;2023-02-19T08:02:56;6.30;99.90
16136;DHT22;8173;48.354;9.248;2023-02-19T08:06:03;6.40;99.90
16136;DHT22;8173;48.354;9.248;2023-02-19T08:08:31;6.40;99.90
16136;DHT22;8173;48.354;9.248;2023-02-19T08:11:15;6.40;99.90
16136;DHT22;8173;48.354;9.248;2023-02-19T08:16:27;6.30;99.90
16136;DHT22;8173;48.354;9.248;2023-02-19T08:18:54;6.40;99.90
16136;DHT22;8173;48.354;9.248;2023-02-19T08:21:52;6.50;99.90
16136;DHT22;8173;48.354;9.248;2023-02-19T08:24:24;6.60;99.90
16136;DHT22;8173;48.354;9.248;2023-02-19T08:26:53;7.50;99.90
16136;DHT22;8173;48.354;9.248;2023-02-19T08:32:30;6.80;99.90
16136;DHT22;8173;48.354;9.248;2023-02-19T08:35:12;6.80;99.90
16136;DHT22;8173;48.354;9.248;2023-02-19T08:41:37;6.80;99.90
16136;DHT22;8173;48.354;9.248;2023-02-19T08:44:04;6.70;99.90
16136;DHT22;8173;48.354;9.248;2023-02-19T08:46:46;6.70;99.90
16136;DHT22;8173;48.354;9.248;2023-02-19T08:49:38;6.50;99.90
16136;DHT22;8173;48.354;9.248;2023-02-19T08:52:08;6.50;99.90
16136;DHT22;8173;48.354;9.248;2023-02-19T08:54:40;6.60;99.90
16136;DHT22;8173;48.354;9.248;2023-02-19T08:57:14;6.60;99.90
16136;DHT22;8173;48.354;9.248;2023-02-19T08:59:41;6.60;99.90
16136;DHT22;8173;48.354;9.248;2023-02-19T09:02:08;6.50;99.90
16136;DHT22;8173;48.354;9.248;2023-02-19T09:04:34;6.60;99.90
16136;DHT22;8173;48.354;9.248;2023-02-19T09:07:02;6.60;99.90
16136;DHT22;8173;48.354;9.248;2023-02-19T09:09:32;6.50;99.90
16136;DHT22;8173;48.354;9.248;2023-02-19T09:11:59;6.50;99.90
16136;DHT22;8173;48.354;9.248;2023-02-19T09:14:30;6.50;99.90
16136;DHT22;8173;48.354;9.248;2023-02-19T09:16:57;6.50;99.90
16136;DHT22;8173;48.354;9.248;2023-02-19T09:19:24;6.40;99.90
16136;DHT22;8173;48.354;9.248;2023-02-19T09:21:50;6.30;99.90
16136;DHT22;8173;48.354;9.248;2023-02-19T09:24:17;4.90;99.90
16136;DHT22;8173;48.354;9.248;2023-02-19T09:26:44;6.30;99.90
16136;DHT22;8173;48.354;9.248;2023-02-19T09:29:10;6.30;99.90
16136;DHT22;8173;48.354;9.248;2023-02-19T09:31:38;6.30;99.90
16136;DHT22;8173;48.354;9.248;2023-02-19T09:34:06;6.40;99.90
16136;DHT22;8173;48.354;9.248;2023-02-19T09:36:33;6.50;99.90
16136;DHT22;8173;48.354;9.248;2023-02-19T09:39:00;6.50;99.90
16136;DHT22;8173;48.354;9.248;2023-02-19T09:41:30;6.60;99.90
16136;DHT22;8173;48.354;9.248;2023-02-19T09:43:57;6.50;99.90
16136;DHT22;8173;48.354;9.248;2023-02-19T09:46:29;6.50;99.90
16136;DHT22;8173;48.354;9.248;2023-02-19T09:49:02;6.50;99.90
16136;DHT22;8173;48.354;9.248;2023-02-19T09:51:32;6.60;99.90
16136;DHT22;8173;48.354;9.248;2023-02-19T09:54:00;6.60;99.90
16136;DHT22;8173;48.354;9.248;2023-02-19T09:56:28;6.60;99.90
16136;DHT22;8173;48.354;9.248;2023-02-19T09:58:57;6.60;99.90
16136;DHT22;8173;48.354;9.248;2023-02-19T10:01:28;6.70;99.90
16136;DHT22;8173;48.354;9.248;2023-02-19T10:03:58;6.60;99.90
16136;DHT22;8173;48.354;9.248;2023-02-19T10:06:27;6.70;99.90
16136;DHT22;8173;48.354;9.248;2023-02-19T10:08:59;6.50;99.90
16136;DHT22;8173;48.354;9.248;2023-02-19T10:11:28;6.50;99.90
16136;DHT22;8173;48.354;9.248;2023-02-19T10:14:02;6.50;99.90
16136;DHT22;8173;48.354;9.248;2023-02-19T10:16:30;6.50;99.90
16136;DHT22;8173;48.354;9.248;2023-02-19T10:18:58;6.60;99.90
16136;DHT22;8173;48.354;9.248;2023-02-19T10:21:26;6.70;99.90
16136;DHT22;8173;48.354;9.248;2023-02-19T10:23:54;6.90;99.90
16136;DHT22;8173;48.354;9.248;2023-02-19T10:26:22;7.00;99.90
16136;DHT22;8173;48.354;9.248;2023-02-19T10:28:49;7.20;99.90
16136;DHT22;8173;48.354;9.248;2023-02-19T10:31:20;7.20;99.90
16136;DHT22;8173;48.354;9.248;2023-02-19T10:33:51;7.10;99.90
16136;DHT22;8173;48.354;9.248;2023-02-19T10:36:26;7.00;99.90
16136;DHT22;8173;48.354;9.248;2023-02-19T10:38:54;6.80;99.90
16136;DHT22;8173;48.354;9.248;2023-02-19T10:41:23;6.90;99.90
16136;DHT22;8173;48.354;9.248;2023-02-19T10:43:53;6.90;99.90
16136;DHT22;8173;48.354;9.248;2023-02-19T10:46:23;7.00;99.90
16136;DHT22;8173;48.354;9.248;2023-02-19T10:48:52;7.10;99.90
16136;DHT22;8173;48.354;9.248;2023-02-19T10:51:24;7.10;99.90
16136;DHT22;8173;48.354;9.248;2023-02-19T10:54:05;7.20;99.90
16136;DHT22;8173;48.354;9.248;2023-02-19T10:56:32;7.30;99.90
16136;DHT22;8173;48.354;9.248;2023-02-19T10:59:14;7.10;99.90
16136;DHT22;8173;48.354;9.248;2023-02-19T11:01:52;7.20;99.90
16136;DHT22;8173;48.354;9.248;2023-02-19T11:04:19;7.30;99.90
16136;DHT22;8173;48.354;9.248;2023-02-19T11:06:46;7.40;99.90
16136;DHT22;8173;48.354;9.248;2023-02-19T11:09:24;7.70;99.90
16136;DHT22;8173;48.354;9.248;2023-02-19T11:11:52;7.70;99.90
16136;DHT22;8173;48.354;9.248;2023-02-19T11:14:21;7.70;99.90
16136;DHT22;8173;48.354;9.248;2023-02-19T11:16:51;7.70;99.90
16136;DHT22;8173;48.354;9.248;2023-02-19T11:19:23;7.50;99.90
16136;DHT22;8173;48.354;9.248;2023-02-19T11:21:50;7.50;99.90
16136;DHT22;8173;48.354;9.248;2023-02-19T11:24:25;7.40;99.90
16136;DHT22;8173;48.354;9.248;2023-02-19T11:26:53;7.30;99.90
16136;DHT22;8173;48.354;9.248;2023-02-19T11:29:22;7.50;99.90
16136;DHT22;8173;48.354;9.248;2023-02-19T11:31:49;7.50;99.90
16136;DHT22;8173;48.354;9.248;2023-02-19T11:34:29;7.50;99.90
16136;DHT22;8173;48.354;9.248;2023-02-19T11:37:11;7.50;99.90
16136;DHT22;8173;48.354;9.248;2023-02-19T11:39:42;7.60;99.90
16136;DHT22;8173;48.354;9.248;2023-02-19T11:45:29;7.70;99.90
16136;DHT22;8173;48.354;9.248;2023-02-19T11:48:15;7.70;99.90
16136;DHT22;8173;48.354;9.248;2023-02-19T11:50:51;7.70;99.90
16136;DHT22;8173;48.354;9.248;2023-02-19T11:53:25;7.90;99.90
16136;DHT22;8173;48.354;9.248;2023-02-19T11:56:14;7.80;99.90
16136;DHT22;8173;48.354;9.248;2023-02-19T11:58:54;7.90;99.90
16136;DHT22;8173;48.354;9.248;2023-02-19T12:01:26;8.10;99.90
16136;DHT22;8173;48.354;9.248;2023-02-19T12:04:25;8.10;99.90
16136;DHT22;8173;48.354;9.248;2023-02-19T12:07:08;7.90;99.90
16136;DHT22;8173;48.354;9.248;2023-02-19T12:09:47;7.60;99.90
16136;DHT22;8173;48.354;9.248;2023-02-19T12:12:28;7.40;99.90
16136;DHT22;8173;48.354;9.248;2023-02-19T12:18:08;7.60;99.90
16136;DHT22;8173;48.354;9.248;2023-02-19T12:20:43;7.70;99.90
16136;DHT22;8173;48.354;9.248;2023-02-19T12:23:39;8.10;99.90
16136;DHT22;8173;48.354;9.248;2023-02-19T12:26:18;8.10;99.90
16136;DHT22;8173;48.354;9.248;2023-02-19T12:29:10;8.00;99.90
16136;DHT22;8173;48.354;9.248;2023-02-19T12:31:58;7.70;99.90
16136;DHT22;8173;48.354;9.248;2023-02-19T12:34:54;7.40;99.90
16136;DHT22;8173;48.354;9.248;2023-02-19T12:37:36;7.20;99.90
16136;DHT22;8173;48.354;9.248;2023-02-19T12:40:20;7.00;99.90
16136;DHT22;8173;48.354;9.248;2023-02-19T12:42:56;6.90;99.90
16136;DHT22;8173;48.354;9.248;2023-02-19T12:45:32;6.90;99.90
16136;DHT22;8173;48.354;9.248;2023-02-19T12:48:06;7.30;99.90
16136;DHT22;8173;48.354;9.248;2023-02-19T12:50:38;7.80;99.90
16136;DHT22;8173;48.354;9.248;2023-02-19T12:53:22;7.90;99.90
16136;DHT22;8173;48.354;9.248;2023-02-19T12:55:50;7.80;99.90
16136;DHT22;8173;48.354;9.248;2023-02-19T12:58:23;7.80;99.90
16136;DHT22;8173;48.354;9.248;2023-02-19T13:00:54;8.00;99.90
16136;DHT22;8173;48.354;9.248;2023-02-19T13:03:28;8.30;99.90
16136;DHT22;8173;48.354;9.248;2023-02-19T13:06:00;8.30;99.90
16136;DHT22;8173;48.354;9.248;2023-02-19T13:08:31;8.30;99.90
16136;DHT22;8173;48.354;9.248;2023-02-19T13:11:05;8.00;99.90
16136;DHT22;8173;48.354;9.248;2023-02-19T13:13:36;8.10;99.90
16136;DHT22;8173;48.354;9.248;2023-02-19T13:16:09;8.20;99.90
16136;DHT22;8173;48.354;9.248;2023-02-19T13:18:41;8.10;99.90
16136;DHT22;8173;48.354;9.248;2023-02-19T13:21:08;8.10;99.90
16136;DHT22;8173;48.354;9.248;2023-02-19T13:23:36;8.00;99.90
16136;DHT22;8173;48.354;9.248;2023-02-19T13:26:41;7.90;99.90
16136;DHT22;8173;48.354;9.248;2023-02-19T13:29:18;8.00;99.90
16136;DHT22;8173;48.354;9.248;2023-02-19T13:32:13;8.10;99.90
16136;DHT22;8173;48.354;9.248;2023-02-19T13:34:57;8.00;99.90
16136;DHT22;8173;48.354;9.248;2023-02-19T13:37:26;8.20;99.90
16136;DHT22;8173;48.354;9.248;2023-02-19T13:39:59;8.30;99.90
16136;DHT22;8173;48.354;9.248;2023-02-19T13:42:32;8.50;99.90
16136;DHT22;8173;48.354;9.248;2023-02-19T13:44:59;8.20;99.90
16136;DHT22;8173;48.354;9.248;2023-02-19T13:47:47;8.00;99.90
16136;DHT22;8173;48.354;9.248;2023-02-19T13:50:20;7.90;99.90
16136;DHT22;8173;48.354;9.248;2023-02-19T13:52:47;7.90;99.90
16136;DHT22;8173;48.354;9.248;2023-02-19T13:55:44;7.90;99.90
16136;DHT22;8173;48.354;9.248;2023-02-19T14:04:45;8.00;99.90
16136;DHT22;8173;48.354;9.248;2023-02-19T14:10:02;7.80;99.90
16136;DHT22;8173;48.354;9.248;2023-02-19T14:12:33;7.50;99.90
16136;DHT22;8173;48.354;9.248;2023-02-19T14:15:39;8.30;99.90
16136;DHT22;8173;48.354;9.248;2023-02-19T14:18:39;7.10;99.90
16136;DHT22;8173;48.354;9.248;2023-02-19T14:21:15;6.90;99.90
16136;DHT22;8173;48.354;9.248;2023-02-19T14:23:43;6.90;99.90
16136;DHT22;8173;48.354;9.248;2023-02-19T14:26:10;6.80;99.90
16136;DHT22;8173;48.354;9.248;2023-02-19T14:28:42;6.70;99.90
16136;DHT22;8173;48.354;9.248;2023-02-19T14:31:23;6.70;99.90
16136;DHT22;8173;48.354;9.248;2023-02-19T14:33:54;6.70;99.90
16136;DHT22;8173;48.354;9.248;2023-02-19T14:36:38;6.70;99.90
16136;DHT22;8173;48.354;9.248;2023-02-19T14:39:11;6.80;99.90
16136;DHT22;8173;48.354;9.248;2023-02-19T14:41:41;6.80;99.90
16136;DHT22;8173;48.354;9.248;2023-02-19T14:44:15;6.90;99.90
16136;DHT22;8173;48.354;9.248;2023-02-19T14:46:47;6.90;99.90
16136;DHT22;8173;48.354;9.248;2023-02-19T14:49:19;6.80;99.90
16136;DHT22;8173;48.354;9.248;2023-02-19T14:51:51;6.80;99.90
16136;DHT22;8173;48.354;9.248;2023-02-19T14:54:21;6.70;99.90
16136;DHT22;8173;48.354;9.248;2023-02-19T14:56:54;6.70;99.90
16136;DHT22;8173;48.354;9.248;2023-02-19T14:59:25;6.70;99.90
16136;DHT22;8173;48.354;9.248;2023-02-19T15:01:57;6.60;99.90
16136;DHT22;8173;48.354;9.248;2023-02-19T15:04:26;6.60;99.90
16136;DHT22;8173;48.354;9.248;2023-02-19T15:06:55;6.50;99.90
16136;DHT22;8173;48.354;9.248;2023-02-19T15:09:29;6.50;99.90
16136;DHT22;8173;48.354;9.248;2023-02-19T15:11:57;6.50;99.90
16136;DHT22;8173;48.354;9.248;2023-02-19T15:14:25;6.50;99.90
16136;DHT22;8173;48.354;9.248;2023-02-19T15:16:57;6.50;99.90
16136;DHT22;8173;48.354;9.248;2023-02-19T15:19:25;6.40;99.90
16136;DHT22;8173;48.354;9.248;2023-02-19T15:21:54;6.40;99.90
16136;DHT22;8173;48.354;9.248;2023-02-19T15:24:21;6.30;99.90
16136;DHT22;8173;48.354;9.248;2023-02-19T15:26:50;6.30;99.90
16136;DHT22;8173;48.354;9.248;2023-02-19T15:29:20;6.30;99.90
16136;DHT22;8173;48.354;9.248;2023-02-19T15:31:48;6.20;99.90
16136;DHT22;8173;48.354;9.248;2023-02-19T15:34:17;6.60;99.90
16136;DHT22;8173;48.354;9.248;2023-02-19T15:36:45;9.50;99.90
16136;DHT22;8173;48.354;9.248;2023-02-19T15:39:19;6.30;99.90
16136;DHT22;8173;48.354;9.248;2023-02-19T15:41:58;6.20;99.90
16136;DHT22;8173;48.354;9.248;2023-02-19T15:44:34;6.20;99.90
16136;DHT22;8173;48.354;9.248;2023-02-19T15:47:07;6.20;99.90
16136;DHT22;8173;48.354;9.248;2023-02-19T15:49:43;6.20;99.90
16136;DHT22;8173;48.354;9.248;2023-02-19T15:52:18;6.20;99.90
16136;DHT22;8173;48.354;9.248;2023-02-19T15:54:53;6.20;99.90
16136;DHT22;8173;48.354;9.248;2023-02-19T15:57:27;6.20;99.90
16136;DHT22;8173;48.354;9.248;2023-02-19T15:59:58;6.20;99.90
16136;DHT22;8173;48.354;9.248;2023-02-19T16:02:26;6.20;99.90
16136;DHT22;8173;48.354;9.248;2023-02-19T16:04:53;6.10;99.90
16136;DHT22;8173;48.354;9.248;2023-02-19T16:07:23;6.20;99.90
16136;DHT22;8173;48.354;9.248;2023-02-19T16:10:06;6.10;99.90
16136;DHT22;8173;48.354;9.248;2023-02-19T16:12:41;6.10;99.90
16136;DHT22;8173;48.354;9.248;2023-02-19T16:15:12;6.10;99.90
16136;DHT22;8173;48.354;9.248;2023-02-19T16:17:41;6.20;99.90
16136;DHT22;8173;48.354;9.248;2023-02-19T16:20:18;6.10;99.90
16136;DHT22;8173;48.354;9.248;2023-02-19T16:22:45;6.10;99.90
16136;DHT22;8173;48.354;9.248;2023-02-19T16:25:25;6.00;99.90
16136;DHT22;8173;48.354;9.248;2023-02-19T16:27:53;5.90;99.90
16136;DHT22;8173;48.354;9.248;2023-02-19T16:30:27;5.90;99.90
16136;DHT22;8173;48.354;9.248;2023-02-19T16:33:20;5.90;99.90
16136;DHT22;8173;48.354;9.248;2023-02-19T16:35:48;5.90;99.90
16136;DHT22;8173;48.354;9.248;2023-02-19T16:38:18;5.80;99.90
16136;DHT22;8173;48.354;9.248;2023-02-19T16:41:11;5.80;99.90
16136;DHT22;8173;48.354;9.248;2023-02-19T16:43:41;5.80;99.90
16136;DHT22;8173;48.354;9.248;2023-02-19T16:46:09;5.70;99.90
16136;DHT22;8173;48.354;9.248;2023-02-19T16:48:37;5.70;99.90
16136;DHT22;8173;48.354;9.248;2023-02-19T16:51:05;5.70;99.90
16136;DHT22;8173;48.354;9.248;2023-02-19T16:53:32;5.70;99.90
16136;DHT22;8173;48.354;9.248;2023-02-19T16:58:28;5.60;99.90
16136;DHT22;8173;48.354;9.248;2023-02-19T17:00:54;5.70;99.90
16136;DHT22;8173;48.354;9.248;2023-02-19T17:03:23;6.80;99.90
16136;DHT22;8173;48.354;9.248;2023-02-19T17:05:51;5.60;99.90
16136;DHT22;8173;48.354;9.248;2023-02-19T17:08:33;5.60;99.90
16136;DHT22;8173;48.354;9.248;2023-02-19T17:11:03;5.60;99.90
16136;DHT22;8173;48.354;9.248;2023-02-19T17:13:31;5.60;99.90
16136;DHT22;8173;48.354;9.248;2023-02-19T17:15:58;5.60;99.90
16136;DHT22;8173;48.354;9.248;2023-02-19T17:18:25;5.50;99.90
16136;DHT22;8173;48.354;9.248;2023-02-19T17:20:54;5.60;99.90
16136;DHT22;8173;48.354;9.248;2023-02-19T17:23:22;5.50;99.90
16136;DHT22;8173;48.354;9.248;2023-02-19T17:25:48;5.60;99.90
16136;DHT22;8173;48.354;9.248;2023-02-19T17:28:15;5.50;99.90
16136;DHT22;8173;48.354;9.248;2023-02-19T17:30:43;5.50;99.90
16136;DHT22;8173;48.354;9.248;2023-02-19T17:33:10;5.50;99.90
16136;DHT22;8173;48.354;9.248;2023-02-19T17:35:37;5.50;99.90
16136;DHT22;8173;48.354;9.248;2023-02-19T17:38:04;6.90;99.90
16136;DHT22;8173;48.354;9.248;2023-02-19T17:40:34;5.50;99.90
16136;DHT22;8173;48.354;9.248;2023-02-19T17:43:01;5.50;99.90
16136;DHT22;8173;48.354;9.248;2023-02-19T17:45:28;5.50;99.90
16136;DHT22;8173;48.354;9.248;2023-02-19T17:47:56;5.60;99.90
16136;DHT22;8173;48.354;9.248;2023-02-19T17:50:25;5.60;99.90
16136;DHT22;8173;48.354;9.248;2023-02-19T17:52:52;5.60;99.90
16136;DHT22;8173;48.354;9.248;2023-02-19T17:55:19;5.50;99.90
16136;DHT22;8173;48.354;9.248;2023-02-19T17:57:46;6.10;99.90
16136;DHT22;8173;48.354;9.248;2023-02-19T18:00:15;5.50;99.90
16136;DHT22;8173;48.354;9.248;2023-02-19T18:02:42;5.50;99.90
16136;DHT22;8173;48.354;9.248;2023-02-19T18:05:11;5.70;99.90
16136;DHT22;8173;48.354;9.248;2023-02-19T18:07:38;5.60;99.90
16136;DHT22;8173;48.354;9.248;2023-02-19T18:10:06;5.50;99.90
16136;DHT22;8173;48.354;9.248;2023-02-19T18:12:33;5.50;99.90
16136;DHT22;8173;48.354;9.248;2023-02-19T18:14:59;5.50;99.90
16136;DHT22;8173;48.354;9.248;2023-02-19T18:17:26;5.50;99.90
16136;DHT22;8173;48.354;9.248;2023-02-19T18:19:53;5.50;99.90
16136;DHT22;8173;48.354;9.248;2023-02-19T18:22:21;5.50;99.90
16136;DHT22;8173;48.354;9.248;2023-02-19T18:24:50;5.50;99.90
16136;DHT22;8173;48.354;9.248;2023-02-19T18:27:17;5.50;99.90
16136;DHT22;8173;48.354;9.248;2023-02-19T18:29:48;5.50;99.90
16136;DHT22;8173;48.354;9.248;2023-02-19T18:32:15;5.60;99.90
16136;DHT22;8173;48.354;9.248;2023-02-19T18:34:42;5.50;99.90
16136;DHT22;8173;48.354;9.248;2023-02-19T18:37:08;5.60;99.90
16136;DHT22;8173;48.354;9.248;2023-02-19T18:39:36;5.60;99.90
16136;DHT22;8173;48.354;9.248;2023-02-19T18:42:04;5.50;99.90
16136;DHT22;8173;48.354;9.248;2023-02-19T18:44:30;5.60;99.90
16136;DHT22;8173;48.354;9.248;2023-02-19T18:46:57;6.20;99.90
16136;DHT22;8173;48.354;9.248;2023-02-19T18:49:24;5.60;99.90
16136;DHT22;8173;48.354;9.248;2023-02-19T18:51:51;5.60;99.90
16136;DHT22;8173;48.354;9.248;2023-02-19T18:54:21;5.60;99.90
16136;DHT22;8173;48.354;9.248;2023-02-19T18:56:50;5.60;99.90
16136;DHT22;8173;48.354;9.248;2023-02-19T18:59:17;5.60;99.90
16136;DHT22;8173;48.354;9.248;2023-02-19T19:01:44;5.60;99.90
16136;DHT22;8173;48.354;9.248;2023-02-19T19:04:11;5.60;99.90
16136;DHT22;8173;48.354;9.248;2023-02-19T19:06:38;5.60;99.90
16136;DHT22;8173;48.354;9.248;2023-02-19T19:09:05;5.50;99.90
16136;DHT22;8173;48.354;9.248;2023-02-19T19:11:32;5.60;99.90
16136;DHT22;8173;48.354;9.248;2023-02-19T19:14:00;5.50;99.90
16136;DHT22;8173;48.354;9.248;2023-02-19T19:16:28;5.50;99.90